createdAt,value
2023-04-07T00:00:44.804Z,10.20
2023-04-07T00:04:46.067Z,10.20
2023-04-07T00:08:47.325Z,10.20
2023-04-07T00:12:48.496Z,10.20
2023-04-07T00:16:49.696Z,10.10
2023-04-07T00:20:50.870Z,10.30
2023-04-07T00:24:52.068Z,10.30
2023-04-07T00:28:53.222Z,10.00
2023-04-07T00:32:54.430Z,10.10
2023-04-07T00:36:55.676Z,10.10
2023-04-07T00:40:58.649Z,10.20
2023-04-07T00:45:00.153Z,10.00
2023-04-07T00:49:01.276Z,9.60
2023-04-07T00:53:02.438Z,9.50
2023-04-07T00:57:03.860Z,9.40
2023-04-07T01:01:08.854Z,9.40
2023-04-07T01:05:19.665Z,9.50
2023-04-07T01:09:27.693Z,9.50
2023-04-07T01:13:38.203Z,9.20
2023-04-07T01:17:49.396Z,9.30
2023-04-07T01:21:54.145Z,9.20
2023-04-07T01:26:28.518Z,9.20
2023-04-07T01:30:32.479Z,9.20
2023-04-07T01:34:35.110Z,9.20
2023-04-07T01:38:38.368Z,9.30
2023-04-07T01:42:40.925Z,9.50
2023-04-07T01:46:42.139Z,9.30
2023-04-07T01:50:44.256Z,9.20
2023-04-07T01:54:46.023Z,8.90
2023-04-07T01:58:47.175Z,9.20
2023-04-07T02:02:51.401Z,9.10
2023-04-07T02:06:56.507Z,9.20
2023-04-07T02:10:59.050Z,9.30
2023-04-07T02:15:00.735Z,9.30
2023-04-07T02:19:03.018Z,9.40
2023-04-07T02:23:04.289Z,9.40
2023-04-07T02:27:05.448Z,9.20
2023-04-07T02:31:06.598Z,9.20
2023-04-07T02:35:07.988Z,9.20
2023-04-07T02:39:09.988Z,9.30
2023-04-07T02:43:11.118Z,9.20
2023-04-07T02:47:12.293Z,9.30
2023-04-07T02:51:13.581Z,9.40
2023-04-07T02:55:14.837Z,9.70
2023-04-07T02:59:16.386Z,9.50
2023-04-07T03:03:17.821Z,9.60
2023-04-07T03:07:19.129Z,9.40
2023-04-07T03:11:20.355Z,9.50
2023-04-07T03:15:21.470Z,9.60
2023-04-07T03:19:22.637Z,9.70
2023-04-07T03:23:23.806Z,9.70
2023-04-07T03:27:25.062Z,9.70
2023-04-07T03:31:26.509Z,9.70
2023-04-07T03:35:27.678Z,9.70
2023-04-07T03:39:29.037Z,9.80
2023-04-07T03:43:30.297Z,9.80
2023-04-07T03:47:31.722Z,9.80
2023-04-07T03:51:33.555Z,9.80
2023-04-07T03:55:36.146Z,9.90
2023-04-07T03:59:37.707Z,9.90
2023-04-07T04:03:38.962Z,10.00
2023-04-07T04:07:40.541Z,9.80
2023-04-07T04:11:41.914Z,9.80
2023-04-07T04:15:43.110Z,9.80
2023-04-07T04:19:44.236Z,9.90
2023-04-07T04:23:45.590Z,9.80
2023-04-07T04:27:46.791Z,9.80
2023-04-07T04:31:48.000Z,9.50
2023-04-07T04:35:49.237Z,9.50
2023-04-07T04:39:50.569Z,9.70
2023-04-07T04:43:51.775Z,9.70
2023-04-07T04:47:52.977Z,9.60
2023-04-07T04:51:54.131Z,9.70
2023-04-07T04:55:55.314Z,9.70
2023-04-07T04:59:56.479Z,9.70
2023-04-07T05:03:58.704Z,9.60
2023-04-07T05:08:00.512Z,9.70
2023-04-07T05:12:01.876Z,9.60
2023-04-07T05:16:03.319Z,9.60
2023-04-07T05:20:05.555Z,9.70
2023-04-07T05:24:09.260Z,9.70
2023-04-07T05:28:10.187Z,9.60
2023-04-07T05:32:11.376Z,9.70
2023-04-07T05:36:12.522Z,9.70
2023-04-07T05:40:13.939Z,9.60
2023-04-07T05:44:15.192Z,9.50
2023-04-07T05:48:16.377Z,9.50
2023-04-07T05:52:17.817Z,9.70
2023-04-07T05:56:19.007Z,9.80
2023-04-07T06:00:21.310Z,9.90
2023-04-07T06:04:22.474Z,10.00
2023-04-07T06:08:23.662Z,10.10
2023-04-07T06:12:25.039Z,10.20
2023-04-07T06:16:26.304Z,10.30
2023-04-07T06:20:27.440Z,10.40
2023-04-07T06:24:28.597Z,10.30
2023-04-07T06:28:29.852Z,10.00
2023-04-07T06:32:31.045Z,9.90
2023-04-07T06:36:33.205Z,10.00
2023-04-07T06:40:34.454Z,10.00
2023-04-07T06:44:35.604Z,10.00
2023-04-07T06:48:36.649Z,9.80
2023-04-07T06:52:37.826Z,9.80
2023-04-07T06:56:40.085Z,9.70
2023-04-07T07:00:41.250Z,9.70
2023-04-07T07:04:42.409Z,9.70
2023-04-07T07:08:43.581Z,9.60
2023-04-07T07:12:45.130Z,9.80
2023-04-07T07:16:47.939Z,9.80
2023-04-07T07:20:50.041Z,9.80
2023-04-07T07:24:51.210Z,9.90
2023-04-07T07:28:52.459Z,9.90
2023-04-07T07:32:54.567Z,10.00
2023-04-07T07:36:55.690Z,10.20
2023-04-07T07:40:56.774Z,10.30
2023-04-07T07:44:59.131Z,10.40
2023-04-07T07:49:00.510Z,10.30
2023-04-07T07:53:02.080Z,10.50
2023-04-07T07:57:03.873Z,10.50
2023-04-07T08:01:05.030Z,10.20
2023-04-07T08:05:06.810Z,10.30
2023-04-07T08:09:08.031Z,10.40
2023-04-07T08:13:09.176Z,10.70
2023-04-07T08:17:11.779Z,10.70
2023-04-07T08:21:13.404Z,10.70
2023-04-07T08:25:15.011Z,10.60
2023-04-07T08:29:16.176Z,10.80
2023-04-07T08:33:17.342Z,10.90
2023-04-07T08:37:18.643Z,11.00
2023-04-07T08:41:23.605Z,11.20
2023-04-07T08:45:25.746Z,11.30
2023-04-07T08:49:29.065Z,11.40
2023-04-07T08:53:34.005Z,11.60
2023-04-07T08:57:36.769Z,11.90
2023-04-07T09:01:39.242Z,12.30
2023-04-07T09:05:40.664Z,12.30
2023-04-07T09:09:41.972Z,12.10
2023-04-07T09:13:43.333Z,11.90
2023-04-07T09:17:44.528Z,12.20
2023-04-07T09:21:51.722Z,12.10
2023-04-07T09:25:52.853Z,12.30
2023-04-07T09:29:57.822Z,12.20
2023-04-07T09:33:59.279Z,12.20
2023-04-07T09:38:03.247Z,12.30
2023-04-07T09:42:06.434Z,12.00
2023-04-07T09:46:16.636Z,11.90
2023-04-07T09:50:34.957Z,12.30
2023-04-07T09:54:38.268Z,12.50
2023-04-07T09:58:40.350Z,12.50
2023-04-07T10:02:42.961Z,12.30
2023-04-07T10:06:45.260Z,12.50
2023-04-07T10:10:49.035Z,12.20
2023-04-07T10:14:51.198Z,12.10
2023-04-07T10:18:52.480Z,11.80
2023-04-07T10:22:56.951Z,11.80
2023-04-07T10:27:02.914Z,12.10
2023-04-07T10:31:04.737Z,12.20
2023-04-07T10:35:08.195Z,12.40
2023-04-07T10:39:13.135Z,12.40
2023-04-07T10:43:21.570Z,12.30
2023-04-07T10:47:23.010Z,12.40
2023-04-07T10:51:24.306Z,12.50
2023-04-07T10:55:37.708Z,12.50
2023-04-07T10:59:42.723Z,12.50
2023-04-07T11:03:56.634Z,12.70
2023-04-07T11:07:59.846Z,12.80
2023-04-07T11:12:01.930Z,12.60
2023-04-07T11:16:03.280Z,12.70
2023-04-07T11:20:06.162Z,12.90
2023-04-07T11:24:07.642Z,13.10
2023-04-07T11:28:11.759Z,13.10
2023-04-07T11:32:13.372Z,13.40
2023-04-07T11:36:14.738Z,13.90
2023-04-07T11:40:19.827Z,14.00
2023-04-07T11:44:20.983Z,14.50
2023-04-07T11:48:28.984Z,15.10
2023-04-07T11:52:42.207Z,14.90
2023-04-07T11:56:47.199Z,14.50
2023-04-07T12:01:02.205Z,14.10
2023-04-07T12:05:04.447Z,13.90
2023-04-07T12:09:05.969Z,13.80
2023-04-07T12:13:08.376Z,13.90
2023-04-07T12:17:22.143Z,13.80
2023-04-07T12:21:25.496Z,13.70
2023-04-07T12:25:26.814Z,13.70
2023-04-07T12:29:28.977Z,13.70
2023-04-07T12:33:30.985Z,13.70
2023-04-07T12:37:33.190Z,13.70
2023-04-07T12:41:34.475Z,13.60
2023-04-07T12:45:36.009Z,13.80
2023-04-07T12:49:37.311Z,13.60
2023-04-07T12:53:38.488Z,13.00
2023-04-07T12:57:39.655Z,12.60
2023-04-07T13:01:41.065Z,12.40
2023-04-07T13:05:42.308Z,12.20
2023-04-07T13:09:43.608Z,12.00
2023-04-07T13:13:44.789Z,11.80
2023-04-07T13:17:46.730Z,12.10
2023-04-07T13:21:48.459Z,12.10
2023-04-07T13:25:49.829Z,12.20
2023-04-07T13:29:50.960Z,12.40
2023-04-07T13:33:52.272Z,12.30
2023-04-07T13:37:53.436Z,12.50
2023-04-07T13:41:55.558Z,12.60
2023-04-07T13:45:56.915Z,12.90
2023-04-07T13:49:58.482Z,12.70
2023-04-07T13:53:59.880Z,12.70
2023-04-07T13:58:01.418Z,13.10
2023-04-07T14:02:02.836Z,13.30
2023-04-07T14:06:04.198Z,13.50
2023-04-07T14:10:06.436Z,13.60
2023-04-07T14:14:08.435Z,13.20
2023-04-07T14:18:10.097Z,13.10
2023-04-07T14:22:12.174Z,12.70
2023-04-07T14:26:13.342Z,12.70
2023-04-07T14:30:14.660Z,13.00
2023-04-07T14:34:15.822Z,13.10
2023-04-07T14:38:16.976Z,13.40
2023-04-07T14:42:18.946Z,13.60
2023-04-07T14:46:20.251Z,13.50
2023-04-07T14:50:23.059Z,13.50
2023-04-07T14:54:24.245Z,13.70
2023-04-07T14:58:25.403Z,13.60
2023-04-07T15:02:27.882Z,13.60
2023-04-07T15:06:29.136Z,13.60
2023-04-07T15:10:30.590Z,13.40
2023-04-07T15:14:31.986Z,13.40
2023-04-07T15:18:33.563Z,13.20
2023-04-07T15:22:35.493Z,12.90
2023-04-07T15:26:36.750Z,12.80
2023-04-07T15:30:37.899Z,12.70
2023-04-07T15:34:39.075Z,12.90
2023-04-07T15:38:40.246Z,13.00
2023-04-07T15:42:42.178Z,13.30
2023-04-07T15:46:43.419Z,13.00
2023-04-07T15:50:44.736Z,12.90
2023-04-07T15:54:45.900Z,13.10
2023-04-07T15:58:47.083Z,13.10
2023-04-07T16:02:48.367Z,13.20
2023-04-07T16:06:49.894Z,13.20
2023-04-07T16:10:51.038Z,12.90
2023-04-07T16:14:52.270Z,12.90
2023-04-07T16:18:53.479Z,12.90
2023-04-07T16:22:54.633Z,12.90
2023-04-07T16:26:55.819Z,12.80
2023-04-07T16:30:57.085Z,12.50
2023-04-07T16:34:58.245Z,12.50
2023-04-07T16:38:59.415Z,12.70
2023-04-07T16:43:00.697Z,12.60
2023-04-07T16:47:03.379Z,12.80
2023-04-07T16:51:05.637Z,12.80
2023-04-07T16:55:07.248Z,12.80
2023-04-07T16:59:08.418Z,12.70
2023-04-07T17:03:09.779Z,12.60
2023-04-07T17:07:11.418Z,12.40
2023-04-07T17:11:12.656Z,12.40
2023-04-07T17:15:14.767Z,12.50
2023-04-07T17:19:16.215Z,12.30
2023-04-07T17:23:17.609Z,12.30
2023-04-07T17:27:18.763Z,12.20
2023-04-07T17:31:20.001Z,12.10
2023-04-07T17:35:22.012Z,12.00
2023-04-07T17:39:23.213Z,12.10
2023-04-07T17:43:24.358Z,12.10
2023-04-07T17:47:25.555Z,12.00
2023-04-07T17:51:26.997Z,12.00
2023-04-07T17:55:28.143Z,12.10
2023-04-07T17:59:29.512Z,12.00
2023-04-07T18:03:31.336Z,11.90
2023-04-07T18:07:32.680Z,11.90
2023-04-07T18:11:33.757Z,11.80
2023-04-07T18:15:35.527Z,11.80
2023-04-07T18:19:36.779Z,11.80
2023-04-07T18:23:37.938Z,11.90
2023-04-07T18:27:39.143Z,11.90
2023-04-07T18:31:43.707Z,11.90
2023-04-07T18:35:44.869Z,12.00
2023-04-07T18:39:46.922Z,11.80
2023-04-07T18:43:48.276Z,11.80
2023-04-07T18:47:50.641Z,11.80
2023-04-07T18:51:52.014Z,11.70
2023-04-07T18:55:53.176Z,11.70
2023-04-07T18:59:54.350Z,11.70
2023-04-07T19:03:57.252Z,11.70
2023-04-07T19:07:58.897Z,11.60
2023-04-07T19:12:00.058Z,11.50
2023-04-07T19:16:02.152Z,11.50
2023-04-07T19:20:03.912Z,11.30
2023-04-07T19:24:05.804Z,11.30
2023-04-07T19:28:06.952Z,11.20
2023-04-07T19:32:08.273Z,11.20
2023-04-07T19:36:10.238Z,11.10
2023-04-07T19:40:11.433Z,11.20
2023-04-07T19:44:12.740Z,11.20
2023-04-07T19:48:14.681Z,11.10
2023-04-07T19:52:16.150Z,11.20
2023-04-07T19:56:17.463Z,11.10
2023-04-07T20:00:18.746Z,11.20
2023-04-07T20:04:20.205Z,11.20
2023-04-07T20:08:21.386Z,11.20
2023-04-07T20:12:23.151Z,11.20
2023-04-07T20:16:24.363Z,11.20
2023-04-07T20:20:25.540Z,11.00
2023-04-07T20:24:27.512Z,11.00
2023-04-07T20:28:28.710Z,11.00
2023-04-07T20:32:29.964Z,10.80
2023-04-07T20:36:31.352Z,10.90
2023-04-07T20:40:36.831Z,11.00
2023-04-07T20:44:38.040Z,11.00
2023-04-07T20:48:39.213Z,11.00
2023-04-07T20:52:42.436Z,11.10
2023-04-07T20:56:44.395Z,11.10
2023-04-07T21:00:45.894Z,11.30
2023-04-07T21:04:47.243Z,11.30
2023-04-07T21:08:48.597Z,11.20
2023-04-07T21:12:49.984Z,11.20
2023-04-07T21:16:51.437Z,11.10
2023-04-07T21:20:52.619Z,11.10
2023-04-07T21:24:55.066Z,11.20
2023-04-07T21:28:56.775Z,11.30
2023-04-07T21:32:57.984Z,11.20
2023-04-07T21:36:59.232Z,11.20
2023-04-07T21:41:00.571Z,11.20
2023-04-07T21:45:02.197Z,11.30
2023-04-07T21:49:03.892Z,11.30
2023-04-07T21:53:05.062Z,11.30
2023-04-07T21:57:06.936Z,11.50
2023-04-07T22:01:08.099Z,11.50
2023-04-07T22:05:10.183Z,11.40
2023-04-07T22:09:11.345Z,11.30
2023-04-07T22:13:12.588Z,11.40
2023-04-07T22:17:13.971Z,11.20
2023-04-07T22:21:15.250Z,11.20
2023-04-07T22:25:16.686Z,11.20
2023-04-07T22:29:17.848Z,11.10
2023-04-07T22:33:19.019Z,11.10
2023-04-07T22:37:20.209Z,11.10
2023-04-07T22:41:21.664Z,11.00
2023-04-07T22:45:22.855Z,11.10
2023-04-07T22:49:24.022Z,11.00
2023-04-07T22:53:25.211Z,11.10
2023-04-07T22:57:26.383Z,11.20
2023-04-07T23:01:27.778Z,11.20
2023-04-07T23:05:29.020Z,11.10
2023-04-07T23:09:30.499Z,11.10
2023-04-07T23:13:31.645Z,11.00
2023-04-07T23:17:33.237Z,11.00
2023-04-07T23:21:34.342Z,11.00
2023-04-07T23:25:35.521Z,11.00
2023-04-07T23:29:36.684Z,11.00
2023-04-07T23:33:37.817Z,11.00
2023-04-07T23:37:38.905Z,11.00
2023-04-07T23:41:40.363Z,11.20
2023-04-07T23:45:41.554Z,11.30
2023-04-07T23:49:42.888Z,11.10
2023-04-07T23:53:44.093Z,11.10
2023-04-07T23:57:45.255Z,11.00
